sensor_id;sensor_type;location;lat;lon;timestamp;P1;durP1;ratioP1;P2;durP2;ratioP2
54557;SDS011;40452;50.080;20.040;2022-12-18T00:02:11;29.42;;;14.35;;
54557;SDS011;40452;50.080;20.040;2022-12-18T00:04:36;27.42;;;13.32;;
54557;SDS011;40452;50.080;20.040;2022-12-18T00:07:02;25.85;;;13.55;;
54557;SDS011;40452;50.080;20.040;2022-12-18T00:09:28;26.55;;;13.93;;
54557;SDS011;40452;50.080;20.040;2022-12-18T00:11:53;23.40;;;13.32;;
54557;SDS011;40452;50.080;20.040;2022-12-18T00:14:19;26.58;;;13.38;;
54557;SDS011;40452;50.080;20.040;2022-12-18T00:16:45;28.02;;;14.90;;
54557;SDS011;40452;50.080;20.040;2022-12-18T00:19:11;26.50;;;13.25;;
54557;SDS011;40452;50.080;20.040;2022-12-18T00:21:38;25.60;;;13.48;;
54557;SDS011;40452;50.080;20.040;2022-12-18T00:24:05;27.27;;;13.63;;
54557;SDS011;40452;50.080;20.040;2022-12-18T08:01:26;19.20;;;11.40;;
54557;SDS011;40452;50.080;20.040;2022-12-18T08:03:52;22.63;;;11.57;;
54557;SDS011;40452;50.080;20.040;2022-12-18T08:06:17;21.00;;;11.40;;
54557;SDS011;40452;50.080;20.040;2022-12-18T08:08:43;20.05;;;11.02;;
54557;SDS011;40452;50.080;20.040;2022-12-18T08:11:08;23.55;;;11.38;;
54557;SDS011;40452;50.080;20.040;2022-12-18T08:13:34;17.33;;;10.48;;
54557;SDS011;40452;50.080;20.040;2022-12-18T08:16:00;20.15;;;10.98;;
54557;SDS011;40452;50.080;20.040;2022-12-18T08:18:28;20.77;;;11.23;;
54557;SDS011;40452;50.080;20.040;2022-12-18T08:20:54;20.02;;;11.35;;
54557;SDS011;40452;50.080;20.040;2022-12-18T08:23:20;23.65;;;10.98;;
54557;SDS011;40452;50.080;20.040;2022-12-18T08:25:45;23.52;;;10.95;;
54557;SDS011;40452;50.080;20.040;2022-12-18T08:28:11;21.75;;;11.40;;
54557;SDS011;40452;50.080;20.040;2022-12-18T08:30:36;21.55;;;10.88;;
54557;SDS011;40452;50.080;20.040;2022-12-18T08:33:02;20.60;;;11.07;;
54557;SDS011;40452;50.080;20.040;2022-12-18T08:35:28;22.55;;;11.48;;
54557;SDS011;40452;50.080;20.040;2022-12-18T08:37:53;26.45;;;11.40;;
54557;SDS011;40452;50.080;20.040;2022-12-18T08:40:19;20.80;;;11.00;;
54557;SDS011;40452;50.080;20.040;2022-12-18T08:42:45;25.88;;;12.88;;
54557;SDS011;40452;50.080;20.040;2022-12-18T08:45:29;24.98;;;12.43;;
54557;SDS011;40452;50.080;20.040;2022-12-18T08:47:58;24.80;;;12.18;;
54557;SDS011;40452;50.080;20.040;2022-12-18T08:50:23;23.55;;;11.93;;
54557;SDS011;40452;50.080;20.040;2022-12-18T08:52:49;23.80;;;11.77;;
54557;SDS011;40452;50.080;20.040;2022-12-18T08:55:14;23.33;;;11.13;;
54557;SDS011;40452;50.080;20.040;2022-12-18T08:57:40;21.27;;;11.57;;
54557;SDS011;40452;50.080;20.040;2022-12-18T09:00:05;23.23;;;11.57;;
54557;SDS011;40452;50.080;20.040;2022-12-18T09:02:32;24.83;;;11.30;;
54557;SDS011;40452;50.080;20.040;2022-12-18T09:04:58;22.48;;;11.68;;
54557;SDS011;40452;50.080;20.040;2022-12-18T09:07:23;24.70;;;11.77;;
54557;SDS011;40452;50.080;20.040;2022-12-18T09:09:49;23.45;;;10.48;;
54557;SDS011;40452;50.080;20.040;2022-12-18T09:12:14;19.42;;;10.98;;
54557;SDS011;40452;50.080;20.040;2022-12-18T09:14:39;22.33;;;11.27;;
54557;SDS011;40452;50.080;20.040;2022-12-18T09:17:05;20.42;;;11.20;;
54557;SDS011;40452;50.080;20.040;2022-12-18T09:19:31;21.73;;;11.88;;
54557;SDS011;40452;50.080;20.040;2022-12-18T09:21:56;20.05;;;10.85;;
54557;SDS011;40452;50.080;20.040;2022-12-18T09:24:22;21.92;;;11.63;;
54557;SDS011;40452;50.080;20.040;2022-12-18T09:26:47;20.67;;;11.05;;
54557;SDS011;40452;50.080;20.040;2022-12-18T09:29:13;24.15;;;11.95;;
54557;SDS011;40452;50.080;20.040;2022-12-18T09:31:39;21.23;;;11.15;;
54557;SDS011;40452;50.080;20.040;2022-12-18T09:34:05;22.17;;;12.10;;
54557;SDS011;40452;50.080;20.040;2022-12-18T09:36:31;21.67;;;11.77;;
54557;SDS011;40452;50.080;20.040;2022-12-18T09:38:56;24.98;;;11.55;;
54557;SDS011;40452;50.080;20.040;2022-12-18T09:41:39;23.00;;;12.45;;
54557;SDS011;40452;50.080;20.040;2022-12-18T09:46:45;23.35;;;12.65;;
54557;SDS011;40452;50.080;20.040;2022-12-18T09:49:18;25.83;;;13.73;;
54557;SDS011;40452;50.080;20.040;2022-12-18T09:51:49;23.02;;;12.85;;
54557;SDS011;40452;50.080;20.040;2022-12-18T09:54:24;21.15;;;11.80;;
54557;SDS011;40452;50.080;20.040;2022-12-18T09:56:55;23.92;;;12.98;;
54557;SDS011;40452;50.080;20.040;2022-12-18T09:59:24;27.23;;;13.90;;
54557;SDS011;40452;50.080;20.040;2022-12-18T10:01:52;25.67;;;14.10;;
54557;SDS011;40452;50.080;20.040;2022-12-18T10:04:17;25.02;;;14.05;;
54557;SDS011;40452;50.080;20.040;2022-12-18T10:06:52;27.33;;;14.25;;
54557;SDS011;40452;50.080;20.040;2022-12-18T10:09:42;30.58;;;14.23;;
54557;SDS011;40452;50.080;20.040;2022-12-18T10:12:21;29.13;;;14.60;;
54557;SDS011;40452;50.080;20.040;2022-12-18T10:15:13;24.60;;;14.38;;
54557;SDS011;40452;50.080;20.040;2022-12-18T10:20:45;23.15;;;13.75;;
54557;SDS011;40452;50.080;20.040;2022-12-18T10:26:07;26.58;;;14.38;;
54557;SDS011;40452;50.080;20.040;2022-12-18T10:28:37;26.88;;;14.88;;
54557;SDS011;40452;50.080;20.040;2022-12-18T10:31:05;30.15;;;16.05;;
54557;SDS011;40452;50.080;20.040;2022-12-18T10:33:32;33.08;;;15.98;;
54557;SDS011;40452;50.080;20.040;2022-12-18T10:35:59;32.33;;;16.52;;
54557;SDS011;40452;50.080;20.040;2022-12-18T10:38:28;28.05;;;15.55;;
54557;SDS011;40452;50.080;20.040;2022-12-18T10:40:58;31.42;;;15.85;;
54557;SDS011;40452;50.080;20.040;2022-12-18T10:43:29;27.98;;;15.25;;
54557;SDS011;40452;50.080;20.040;2022-12-18T10:46:00;30.03;;;15.47;;
54557;SDS011;40452;50.080;20.040;2022-12-18T10:48:40;33.28;;;16.48;;
54557;SDS011;40452;50.080;20.040;2022-12-18T10:51:09;27.45;;;15.40;;
54557;SDS011;40452;50.080;20.040;2022-12-18T10:53:36;32.30;;;15.77;;
54557;SDS011;40452;50.080;20.040;2022-12-18T10:56:03;24.95;;;14.93;;
54557;SDS011;40452;50.080;20.040;2022-12-18T10:58:34;25.13;;;14.73;;
54557;SDS011;40452;50.080;20.040;2022-12-18T11:03:32;31.05;;;15.70;;
54557;SDS011;40452;50.080;20.040;2022-12-18T11:06:07;29.75;;;15.40;;
54557;SDS011;40452;50.080;20.040;2022-12-18T11:08:37;26.65;;;15.35;;
54557;SDS011;40452;50.080;20.040;2022-12-18T11:11:03;27.90;;;14.15;;
54557;SDS011;40452;50.080;20.040;2022-12-18T11:13:39;23.33;;;12.98;;
54557;SDS011;40452;50.080;20.040;2022-12-18T11:16:05;24.38;;;13.65;;
54557;SDS011;40452;50.080;20.040;2022-12-18T11:18:34;26.85;;;14.35;;
54557;SDS011;40452;50.080;20.040;2022-12-18T11:21:07;22.42;;;13.23;;
54557;SDS011;40452;50.080;20.040;2022-12-18T11:23:36;24.20;;;13.40;;
54557;SDS011;40452;50.080;20.040;2022-12-18T11:26:09;25.45;;;13.68;;
54557;SDS011;40452;50.080;20.040;2022-12-18T11:31:17;24.92;;;13.98;;
54557;SDS011;40452;50.080;20.040;2022-12-18T11:33:46;25.67;;;13.75;;
54557;SDS011;40452;50.080;20.040;2022-12-18T11:36:31;26.95;;;14.00;;
54557;SDS011;40452;50.080;20.040;2022-12-18T11:39:03;24.80;;;14.10;;
54557;SDS011;40452;50.080;20.040;2022-12-18T11:42:03;26.10;;;13.32;;
54557;SDS011;40452;50.080;20.040;2022-12-18T11:50:09;24.05;;;13.38;;
54557;SDS011;40452;50.080;20.040;2022-12-18T11:52:42;24.02;;;13.63;;
54557;SDS011;40452;50.080;20.040;2022-12-18T11:55:12;25.92;;;14.13;;
54557;SDS011;40452;50.080;20.040;2022-12-18T11:57:49;22.95;;;12.98;;
54557;SDS011;40452;50.080;20.040;2022-12-18T12:00:39;25.67;;;13.82;;
54557;SDS011;40452;50.080;20.040;2022-12-18T12:05:54;23.10;;;12.63;;
54557;SDS011;40452;50.080;20.040;2022-12-18T12:08:29;25.05;;;13.32;;
54557;SDS011;40452;50.080;20.040;2022-12-18T12:13:41;25.92;;;14.85;;
54557;SDS011;40452;50.080;20.040;2022-12-18T12:16:34;24.25;;;14.18;;
54557;SDS011;40452;50.080;20.040;2022-12-18T12:22:13;25.90;;;13.23;;
54557;SDS011;40452;50.080;20.040;2022-12-18T12:24:52;29.00;;;13.32;;
54557;SDS011;40452;50.080;20.040;2022-12-18T12:35:53;24.98;;;12.77;;
54557;SDS011;40452;50.080;20.040;2022-12-18T12:38:33;26.83;;;12.77;;
54557;SDS011;40452;50.080;20.040;2022-12-18T12:41:09;24.05;;;12.93;;
54557;SDS011;40452;50.080;20.040;2022-12-18T12:44:01;25.00;;;12.45;;
54557;SDS011;40452;50.080;20.040;2022-12-18T12:46:32;22.10;;;12.38;;
54557;SDS011;40452;50.080;20.040;2022-12-18T12:49:02;23.27;;;12.65;;
54557;SDS011;40452;50.080;20.040;2022-12-18T12:51:34;23.60;;;11.65;;
54557;SDS011;40452;50.080;20.040;2022-12-18T12:54:02;21.63;;;11.75;;
54557;SDS011;40452;50.080;20.040;2022-12-18T12:56:54;24.50;;;11.85;;
54557;SDS011;40452;50.080;20.040;2022-12-18T12:59:30;19.52;;;11.05;;
54557;SDS011;40452;50.080;20.040;2022-12-18T13:04:47;19.45;;;11.55;;
54557;SDS011;40452;50.080;20.040;2022-12-18T13:07:26;18.35;;;11.27;;
54557;SDS011;40452;50.080;20.040;2022-12-18T13:15:33;21.33;;;11.48;;
54557;SDS011;40452;50.080;20.040;2022-12-18T13:18:04;22.27;;;12.85;;
54557;SDS011;40452;50.080;20.040;2022-12-18T13:20:33;26.30;;;12.18;;
54557;SDS011;40452;50.080;20.040;2022-12-18T13:26:33;22.10;;;11.38;;
54557;SDS011;40452;50.080;20.040;2022-12-18T13:31:11;19.50;;;11.88;;
54557;SDS011;40452;50.080;20.040;2022-12-18T13:33:44;27.35;;;12.13;;
54557;SDS011;40452;50.080;20.040;2022-12-18T13:36:15;21.42;;;12.05;;
54557;SDS011;40452;50.080;20.040;2022-12-18T13:38:41;22.50;;;12.68;;
54557;SDS011;40452;50.080;20.040;2022-12-18T13:43:49;20.50;;;11.70;;
54557;SDS011;40452;50.080;20.040;2022-12-18T13:49:03;22.58;;;11.82;;
54557;SDS011;40452;50.080;20.040;2022-12-18T13:51:57;22.77;;;12.07;;
54557;SDS011;40452;50.080;20.040;2022-12-18T13:56:57;21.20;;;11.73;;
54557;SDS011;40452;50.080;20.040;2022-12-18T13:59:25;18.30;;;11.10;;
54557;SDS011;40452;50.080;20.040;2022-12-18T14:01:58;20.00;;;11.85;;
54557;SDS011;40452;50.080;20.040;2022-12-18T14:04:40;33.35;;;17.55;;
54557;SDS011;40452;50.080;20.040;2022-12-18T14:07:15;24.38;;;14.52;;
54557;SDS011;40452;50.080;20.040;2022-12-18T14:09:44;27.25;;;13.05;;
54557;SDS011;40452;50.080;20.040;2022-12-18T14:12:17;22.88;;;12.65;;
54557;SDS011;40452;50.080;20.040;2022-12-18T14:15:50;22.83;;;12.00;;
54557;SDS011;40452;50.080;20.040;2022-12-18T14:18:18;24.92;;;13.10;;
54557;SDS011;40452;50.080;20.040;2022-12-18T14:20:44;25.70;;;12.88;;
54557;SDS011;40452;50.080;20.040;2022-12-18T14:25:54;22.45;;;12.60;;
54557;SDS011;40452;50.080;20.040;2022-12-18T14:28:20;23.45;;;12.77;;
54557;SDS011;40452;50.080;20.040;2022-12-18T14:30:47;23.25;;;12.75;;
54557;SDS011;40452;50.080;20.040;2022-12-18T14:33:17;23.45;;;12.77;;
54557;SDS011;40452;50.080;20.040;2022-12-18T14:38:28;26.60;;;13.70;;
54557;SDS011;40452;50.080;20.040;2022-12-18T14:43:34;23.35;;;12.57;;
54557;SDS011;40452;50.080;20.040;2022-12-18T14:46:01;24.90;;;13.90;;
54557;SDS011;40452;50.080;20.040;2022-12-18T14:48:41;28.50;;;14.85;;
54557;SDS011;40452;50.080;20.040;2022-12-18T14:53:56;32.08;;;15.82;;
54557;SDS011;40452;50.080;20.040;2022-12-18T14:56:26;28.92;;;15.65;;
54557;SDS011;40452;50.080;20.040;2022-12-18T14:58:57;40.80;;;16.05;;
54557;SDS011;40452;50.080;20.040;2022-12-18T15:01:37;29.17;;;15.65;;
54557;SDS011;40452;50.080;20.040;2022-12-18T15:04:23;26.67;;;14.15;;
54557;SDS011;40452;50.080;20.040;2022-12-18T15:09:35;29.23;;;15.45;;
54557;SDS011;40452;50.080;20.040;2022-12-18T15:12:01;28.00;;;15.20;;
54557;SDS011;40452;50.080;20.040;2022-12-18T15:17:03;25.70;;;14.65;;
54557;SDS011;40452;50.080;20.040;2022-12-18T15:19:38;26.17;;;14.90;;
54557;SDS011;40452;50.080;20.040;2022-12-18T15:22:14;25.77;;;14.15;;
54557;SDS011;40452;50.080;20.040;2022-12-18T15:24:47;26.20;;;14.27;;
54557;SDS011;40452;50.080;20.040;2022-12-18T15:27:32;26.45;;;15.02;;
54557;SDS011;40452;50.080;20.040;2022-12-18T15:32:35;23.33;;;13.95;;
54557;SDS011;40452;50.080;20.040;2022-12-18T15:37:36;26.75;;;14.82;;
54557;SDS011;40452;50.080;20.040;2022-12-18T15:40:05;25.67;;;14.40;;
54557;SDS011;40452;50.080;20.040;2022-12-18T15:42:32;27.77;;;14.75;;
54557;SDS011;40452;50.080;20.040;2022-12-18T15:45:16;25.75;;;14.98;;
54557;SDS011;40452;50.080;20.040;2022-12-18T15:47:42;24.90;;;14.80;;
54557;SDS011;40452;50.080;20.040;2022-12-18T15:50:08;25.80;;;15.02;;
54557;SDS011;40452;50.080;20.040;2022-12-18T15:52:37;26.65;;;14.30;;
54557;SDS011;40452;50.080;20.040;2022-12-18T15:55:09;23.35;;;13.73;;
54557;SDS011;40452;50.080;20.040;2022-12-18T15:57:56;28.58;;;15.80;;
54557;SDS011;40452;50.080;20.040;2022-12-18T16:00:21;25.60;;;13.77;;
54557;SDS011;40452;50.080;20.040;2022-12-18T16:02:47;27.33;;;14.48;;
54557;SDS011;40452;50.080;20.040;2022-12-18T16:05:17;25.48;;;14.85;;
54557;SDS011;40452;50.080;20.040;2022-12-18T16:07:44;25.45;;;15.75;;
54557;SDS011;40452;50.080;20.040;2022-12-18T16:10:10;26.05;;;15.13;;
54557;SDS011;40452;50.080;20.040;2022-12-18T16:12:36;26.15;;;15.50;;
54557;SDS011;40452;50.080;20.040;2022-12-18T16:15:02;29.35;;;16.13;;
54557;SDS011;40452;50.080;20.040;2022-12-18T16:17:29;26.95;;;15.23;;
54557;SDS011;40452;50.080;20.040;2022-12-18T16:19:54;26.70;;;15.43;;
54557;SDS011;40452;50.080;20.040;2022-12-18T16:22:21;29.52;;;15.40;;
54557;SDS011;40452;50.080;20.040;2022-12-18T16:24:49;25.67;;;15.50;;
54557;SDS011;40452;50.080;20.040;2022-12-18T16:27:16;28.15;;;15.30;;
54557;SDS011;40452;50.080;20.040;2022-12-18T16:29:41;28.33;;;15.75;;
54557;SDS011;40452;50.080;20.040;2022-12-18T16:32:08;26.40;;;16.00;;
54557;SDS011;40452;50.080;20.040;2022-12-18T16:34:38;27.65;;;14.60;;
54557;SDS011;40452;50.080;20.040;2022-12-18T16:37:04;29.48;;;15.10;;
54557;SDS011;40452;50.080;20.040;2022-12-18T16:39:31;26.77;;;15.00;;
54557;SDS011;40452;50.080;20.040;2022-12-18T16:41:58;28.33;;;15.93;;
54557;SDS011;40452;50.080;20.040;2022-12-18T16:44:23;30.83;;;15.15;;
54557;SDS011;40452;50.080;20.040;2022-12-18T16:46:49;26.80;;;16.55;;
54557;SDS011;40452;50.080;20.040;2022-12-18T16:49:15;28.02;;;15.60;;
54557;SDS011;40452;50.080;20.040;2022-12-18T16:51:42;28.50;;;15.93;;
54557;SDS011;40452;50.080;20.040;2022-12-18T16:54:08;28.20;;;15.07;;
54557;SDS011;40452;50.080;20.040;2022-12-18T16:56:34;27.60;;;15.48;;
54557;SDS011;40452;50.080;20.040;2022-12-18T16:59:00;29.60;;;17.40;;
54557;SDS011;40452;50.080;20.040;2022-12-18T17:01:27;30.63;;;17.02;;
54557;SDS011;40452;50.080;20.040;2022-12-18T17:04:03;30.05;;;17.33;;
54557;SDS011;40452;50.080;20.040;2022-12-18T17:06:34;28.73;;;16.50;;
54557;SDS011;40452;50.080;20.040;2022-12-18T17:09:04;30.60;;;17.08;;
54557;SDS011;40452;50.080;20.040;2022-12-18T17:11:33;30.40;;;18.25;;
54557;SDS011;40452;50.080;20.040;2022-12-18T17:14:05;30.63;;;17.75;;
54557;SDS011;40452;50.080;20.040;2022-12-18T17:16:31;35.50;;;18.92;;
54557;SDS011;40452;50.080;20.040;2022-12-18T17:18:57;36.40;;;20.00;;
54557;SDS011;40452;50.080;20.040;2022-12-18T17:21:22;34.58;;;19.05;;
54557;SDS011;40452;50.080;20.040;2022-12-18T17:23:48;36.60;;;21.30;;
54557;SDS011;40452;50.080;20.040;2022-12-18T17:26:13;38.95;;;20.75;;
54557;SDS011;40452;50.080;20.040;2022-12-18T17:28:39;37.78;;;20.50;;
54557;SDS011;40452;50.080;20.040;2022-12-18T17:31:12;37.92;;;21.15;;
54557;SDS011;40452;50.080;20.040;2022-12-18T17:33:40;37.75;;;21.77;;
54557;SDS011;40452;50.080;20.040;2022-12-18T17:36:06;37.40;;;21.85;;
54557;SDS011;40452;50.080;20.040;2022-12-18T17:38:33;39.47;;;21.58;;
54557;SDS011;40452;50.080;20.040;2022-12-18T17:41:02;40.05;;;21.15;;
54557;SDS011;40452;50.080;20.040;2022-12-18T17:43:29;36.83;;;20.25;;
54557;SDS011;40452;50.080;20.040;2022-12-18T17:45:55;41.33;;;21.55;;
54557;SDS011;40452;50.080;20.040;2022-12-18T17:48:25;36.03;;;20.52;;
54557;SDS011;40452;50.080;20.040;2022-12-18T17:50:51;35.47;;;20.42;;
54557;SDS011;40452;50.080;20.040;2022-12-18T17:53:16;34.78;;;21.05;;
54557;SDS011;40452;50.080;20.040;2022-12-18T17:55:42;40.63;;;21.20;;
54557;SDS011;40452;50.080;20.040;2022-12-18T17:58:07;37.22;;;21.70;;
54557;SDS011;40452;50.080;20.040;2022-12-18T18:00:33;37.97;;;21.40;;
54557;SDS011;40452;50.080;20.040;2022-12-18T18:02:58;34.55;;;20.42;;
54557;SDS011;40452;50.080;20.040;2022-12-18T18:05:24;43.03;;;24.40;;
54557;SDS011;40452;50.080;20.040;2022-12-18T18:07:49;46.05;;;26.95;;
54557;SDS011;40452;50.080;20.040;2022-12-18T18:10:15;44.90;;;25.73;;
54557;SDS011;40452;50.080;20.040;2022-12-18T18:12:40;46.67;;;25.50;;
54557;SDS011;40452;50.080;20.040;2022-12-18T18:15:25;48.20;;;25.25;;
54557;SDS011;40452;50.080;20.040;2022-12-18T18:17:50;38.95;;;23.77;;
54557;SDS011;40452;50.080;20.040;2022-12-18T18:20:16;41.50;;;23.80;;
54557;SDS011;40452;50.080;20.040;2022-12-18T18:22:41;42.92;;;25.02;;
54557;SDS011;40452;50.080;20.040;2022-12-18T18:25:07;44.55;;;24.40;;
54557;SDS011;40452;50.080;20.040;2022-12-18T18:27:33;44.35;;;24.83;;
54557;SDS011;40452;50.080;20.040;2022-12-18T18:29:58;40.00;;;23.38;;
54557;SDS011;40452;50.080;20.040;2022-12-18T18:32:24;43.50;;;24.45;;
54557;SDS011;40452;50.080;20.040;2022-12-18T18:34:50;45.75;;;25.30;;
54557;SDS011;40452;50.080;20.040;2022-12-18T18:37:15;43.63;;;24.35;;
54557;SDS011;40452;50.080;20.040;2022-12-18T18:39:41;39.63;;;23.55;;
54557;SDS011;40452;50.080;20.040;2022-12-18T18:42:07;43.58;;;24.85;;
54557;SDS011;40452;50.080;20.040;2022-12-18T18:44:32;39.08;;;23.88;;
54557;SDS011;40452;50.080;20.040;2022-12-18T18:46:59;41.10;;;23.77;;
54557;SDS011;40452;50.080;20.040;2022-12-18T18:49:24;44.22;;;24.52;;
54557;SDS011;40452;50.080;20.040;2022-12-18T18:51:51;39.85;;;23.73;;
54557;SDS011;40452;50.080;20.040;2022-12-18T18:54:18;42.97;;;23.23;;
54557;SDS011;40452;50.080;20.040;2022-12-18T18:56:45;42.05;;;25.50;;
54557;SDS011;40452;50.080;20.040;2022-12-18T18:59:12;43.47;;;25.02;;
54557;SDS011;40452;50.080;20.040;2022-12-18T19:01:37;43.88;;;25.90;;
54557;SDS011;40452;50.080;20.040;2022-12-18T19:04:03;42.03;;;25.17;;
54557;SDS011;40452;50.080;20.040;2022-12-18T19:06:28;49.03;;;27.90;;
54557;SDS011;40452;50.080;20.040;2022-12-18T19:08:55;49.10;;;28.48;;
54557;SDS011;40452;50.080;20.040;2022-12-18T19:11:22;47.92;;;27.02;;
54557;SDS011;40452;50.080;20.040;2022-12-18T19:14:09;45.20;;;25.85;;
54557;SDS011;40452;50.080;20.040;2022-12-18T19:16:36;46.47;;;25.63;;
54557;SDS011;40452;50.080;20.040;2022-12-18T19:19:02;44.58;;;25.50;;
54557;SDS011;40452;50.080;20.040;2022-12-18T19:21:28;42.92;;;24.77;;
54557;SDS011;40452;50.080;20.040;2022-12-18T19:23:55;41.50;;;23.63;;
54557;SDS011;40452;50.080;20.040;2022-12-18T19:26:20;40.13;;;24.17;;
54557;SDS011;40452;50.080;20.040;2022-12-18T19:28:46;40.90;;;23.17;;
54557;SDS011;40452;50.080;20.040;2022-12-18T19:31:13;39.25;;;23.08;;
54557;SDS011;40452;50.080;20.040;2022-12-18T19:33:41;40.13;;;22.92;;
54557;SDS011;40452;50.080;20.040;2022-12-18T19:36:22;39.20;;;22.60;;
54557;SDS011;40452;50.080;20.040;2022-12-18T19:38:49;38.47;;;21.80;;
54557;SDS011;40452;50.080;20.040;2022-12-18T19:41:15;38.33;;;22.55;;
54557;SDS011;40452;50.080;20.040;2022-12-18T19:43:42;37.13;;;21.63;;
54557;SDS011;40452;50.080;20.040;2022-12-18T19:46:08;37.33;;;20.90;;
54557;SDS011;40452;50.080;20.040;2022-12-18T19:48:37;36.90;;;20.63;;
54557;SDS011;40452;50.080;20.040;2022-12-18T19:51:03;36.78;;;20.88;;
54557;SDS011;40452;50.080;20.040;2022-12-18T19:53:30;39.92;;;21.55;;
54557;SDS011;40452;50.080;20.040;2022-12-18T19:55:56;36.67;;;20.70;;
54557;SDS011;40452;50.080;20.040;2022-12-18T19:58:21;35.10;;;20.45;;
54557;SDS011;40452;50.080;20.040;2022-12-18T20:00:47;37.03;;;20.65;;
54557;SDS011;40452;50.080;20.040;2022-12-18T20:03:12;35.85;;;20.58;;
54557;SDS011;40452;50.080;20.040;2022-12-18T20:05:38;31.05;;;19.58;;
54557;SDS011;40452;50.080;20.040;2022-12-18T20:08:03;35.08;;;19.95;;
54557;SDS011;40452;50.080;20.040;2022-12-18T20:10:29;32.33;;;19.45;;
54557;SDS011;40452;50.080;20.040;2022-12-18T20:12:56;35.40;;;19.35;;
54557;SDS011;40452;50.080;20.040;2022-12-18T20:15:21;34.83;;;18.85;;
54557;SDS011;40452;50.080;20.040;2022-12-18T20:17:47;32.78;;;18.42;;
54557;SDS011;40452;50.080;20.040;2022-12-18T20:20:12;30.92;;;18.83;;
54557;SDS011;40452;50.080;20.040;2022-12-18T20:22:38;34.42;;;18.40;;
54557;SDS011;40452;50.080;20.040;2022-12-18T20:25:03;31.65;;;17.83;;
54557;SDS011;40452;50.080;20.040;2022-12-18T20:27:29;33.22;;;19.38;;
54557;SDS011;40452;50.080;20.040;2022-12-18T20:29:55;35.63;;;18.13;;
54557;SDS011;40452;50.080;20.040;2022-12-18T20:32:20;30.15;;;17.58;;
54557;SDS011;40452;50.080;20.040;2022-12-18T20:34:46;36.13;;;19.00;;
54557;SDS011;40452;50.080;20.040;2022-12-18T20:37:11;33.05;;;18.50;;
54557;SDS011;40452;50.080;20.040;2022-12-18T20:39:37;33.70;;;19.08;;
54557;SDS011;40452;50.080;20.040;2022-12-18T20:42:02;31.05;;;17.42;;
54557;SDS011;40452;50.080;20.040;2022-12-18T20:44:28;32.80;;;18.02;;
54557;SDS011;40452;50.080;20.040;2022-12-18T20:46:56;32.60;;;18.05;;
54557;SDS011;40452;50.080;20.040;2022-12-18T20:49:24;31.40;;;18.25;;
54557;SDS011;40452;50.080;20.040;2022-12-18T20:51:51;34.80;;;18.50;;
54557;SDS011;40452;50.080;20.040;2022-12-18T20:54:20;31.35;;;17.27;;
54557;SDS011;40452;50.080;20.040;2022-12-18T20:56:47;30.75;;;17.45;;
54557;SDS011;40452;50.080;20.040;2022-12-18T20:59:12;30.05;;;17.35;;
54557;SDS011;40452;50.080;20.040;2022-12-18T21:01:38;30.30;;;18.10;;
54557;SDS011;40452;50.080;20.040;2022-12-18T21:04:04;32.38;;;17.33;;
54557;SDS011;40452;50.080;20.040;2022-12-18T21:06:29;31.08;;;17.10;;
54557;SDS011;40452;50.080;20.040;2022-12-18T21:08:55;30.63;;;17.48;;
54557;SDS011;40452;50.080;20.040;2022-12-18T21:14:09;28.73;;;16.58;;
54557;SDS011;40452;50.080;20.040;2022-12-18T21:16:40;29.08;;;17.17;;
54557;SDS011;40452;50.080;20.040;2022-12-18T21:19:07;28.60;;;15.93;;
54557;SDS011;40452;50.080;20.040;2022-12-18T21:21:34;30.58;;;16.95;;
54557;SDS011;40452;50.080;20.040;2022-12-18T21:23:59;28.52;;;16.50;;
54557;SDS011;40452;50.080;20.040;2022-12-18T21:26:25;31.90;;;16.42;;
54557;SDS011;40452;50.080;20.040;2022-12-18T21:28:52;27.23;;;15.32;;
54557;SDS011;40452;50.080;20.040;2022-12-18T21:31:19;29.27;;;15.18;;
54557;SDS011;40452;50.080;20.040;2022-12-18T21:33:47;27.45;;;15.65;;
54557;SDS011;40452;50.080;20.040;2022-12-18T21:36:13;26.00;;;15.30;;
54557;SDS011;40452;50.080;20.040;2022-12-18T21:38:38;27.30;;;15.40;;
54557;SDS011;40452;50.080;20.040;2022-12-18T21:41:07;27.70;;;15.02;;
54557;SDS011;40452;50.080;20.040;2022-12-18T21:43:37;28.50;;;15.77;;
54557;SDS011;40452;50.080;20.040;2022-12-18T21:46:21;24.13;;;14.75;;
54557;SDS011;40452;50.080;20.040;2022-12-18T21:48:47;26.85;;;15.02;;
54557;SDS011;40452;50.080;20.040;2022-12-18T21:51:12;23.95;;;15.25;;
54557;SDS011;40452;50.080;20.040;2022-12-18T21:53:38;25.80;;;14.73;;
54557;SDS011;40452;50.080;20.040;2022-12-18T21:56:03;23.75;;;13.95;;
54557;SDS011;40452;50.080;20.040;2022-12-18T21:58:29;23.75;;;14.93;;
54557;SDS011;40452;50.080;20.040;2022-12-18T22:00:55;25.85;;;14.73;;
54557;SDS011;40452;50.080;20.040;2022-12-18T22:03:20;23.90;;;13.98;;
54557;SDS011;40452;50.080;20.040;2022-12-18T22:05:46;25.10;;;15.25;;
54557;SDS011;40452;50.080;20.040;2022-12-18T22:08:11;25.73;;;15.05;;
54557;SDS011;40452;50.080;20.040;2022-12-18T22:10:37;24.40;;;15.02;;
54557;SDS011;40452;50.080;20.040;2022-12-18T22:13:04;25.77;;;14.88;;
54557;SDS011;40452;50.080;20.040;2022-12-18T22:15:30;25.20;;;14.27;;
54557;SDS011;40452;50.080;20.040;2022-12-18T22:17:56;26.40;;;14.55;;
